Time;durP1;ratioP1;P1;durP2;ratioP2;P2;SDS_P1;SDS_P2;PMS_P1;PMS_P2;Temp;Humidity;BMP_temperature;BMP_pressure;BME280_temperature;BME280_humidity;BME280_pressure;Samples;Min_cycle;Max_cycle;Signal;HPM_P1;HPM_P2
2022/11/20 00:00:05;;;;;;;6.50;3.27;;;1.70;99.90;;;;;;5057448;28;20831;-53
2022/11/20 00:02:33;;;;;;;17.10;6.60;;;1.60;99.90;;;;;;5057609;28;20480;-54
2022/11/20 00:05:00;;;;;;;10.67;3.80;;;1.70;99.90;;;;;;5057082;28;20491;-55
2022/11/20 00:07:27;;;;;;;9.40;5.93;;;1.70;99.90;;;;;;5057704;28;20448;-54
2022/11/20 00:09:55;;;;;;;18.97;6.93;;;1.70;99.90;;;;;;5057547;28;20440;-56
2022/11/20 00:12:23;;;;;;;8.57;3.07;;;1.70;99.90;;;;;;5057403;28;20432;-54
2022/11/20 00:14:53;;;;;;;6.30;4.37;;;1.70;99.90;;;;;;5056743;28;20685;-55
2022/11/20 00:17:20;;;;;;;7.70;4.53;;;1.70;99.90;;;;;;5058258;28;20498;-49
2022/11/20 00:19:48;;;;;;;6.83;4.37;;;1.70;99.90;;;;;;5057760;28;20448;-51
2022/11/20 00:22:15;;;;;;;7.23;4.60;;;1.70;99.90;;;;;;5057927;28;20428;-56
2022/11/20 00:24:42;;;;;;;5.33;3.80;;;1.70;99.90;;;;;;5058234;28;20470;-53
2022/11/20 00:27:09;;;;;;;5.03;3.97;;;1.70;99.90;;;;;;5058823;28;20440;-45
2022/11/20 00:29:36;;;;;;;7.20;4.60;;;1.70;99.90;;;;;;5059408;28;20460;-47
2022/11/20 00:32:04;;;;;;;9.13;4.33;;;1.70;99.90;;;;;;5059526;28;20474;-50
2022/11/20 00:34:31;;;;;;;9.07;5.77;;;1.60;99.90;;;;;;5059341;28;20510;-57
2022/11/20 00:37:00;;;;;;;9.17;6.97;;;1.60;99.90;;;;;;5058452;28;20448;-54
2022/11/20 00:39:26;;;;;;;6.90;4.70;;;1.60;99.90;;;;;;5057517;28;20452;-54
2022/11/20 00:41:53;;;;;;;7.80;5.47;;;1.60;99.90;;;;;;5059165;28;20475;-51
2022/11/20 00:44:20;;;;;;;13.37;6.40;;;1.60;99.90;;;;;;5059465;28;20460;-45
2022/11/20 00:46:47;;;;;;;10.37;5.53;;;1.60;99.90;;;;;;5045981;28;20486;-53
2022/11/20 00:49:14;;;;;;;6.67;4.73;;;1.60;99.90;;;;;;5058626;28;20420;-49
2022/11/20 00:51:41;;;;;;;7.37;4.37;;;1.60;99.90;;;;;;5059051;28;20425;-51
2022/11/20 00:54:09;;;;;;;9.00;6.10;;;1.60;99.90;;;;;;5059003;28;20476;-46
2022/11/20 00:56:36;;;;;;;9.20;5.03;;;1.60;99.90;;;;;;5046603;28;20447;-58
2022/11/20 00:59:03;;;;;;;5.90;5.30;;;1.60;99.90;;;;;;5058457;28;20471;-49
2022/11/20 01:01:31;;;;;;;7.00;3.70;;;1.70;99.90;;;;;;5059192;28;20441;-57
2022/11/20 01:04:00;;;;;;;7.00;4.70;;;1.70;99.90;;;;;;5058987;28;20440;-51
2022/11/20 01:06:28;;;;;;;9.63;5.80;;;1.60;99.90;;;;;;5058041;28;20472;-55
2022/11/20 01:08:57;;;;;;;9.47;6.33;;;1.60;99.90;;;;;;5057457;28;20432;-45
2022/11/20 01:11:28;;;;;;;20.80;10.37;;;1.70;99.90;;;;;;5057214;28;20466;-49
2022/11/20 01:13:56;;;;;;;9.30;5.50;;;1.60;99.90;;;;;;5057044;28;20460;-48
2022/11/20 01:16:24;;;;;;;10.70;4.70;;;1.70;99.90;;;;;;5050784;28;20800;-52
2022/11/20 01:18:53;;;;;;;13.20;6.83;;;1.60;99.90;;;;;;5051262;28;20452;-51
2022/11/20 01:21:22;;;;;;;8.40;4.53;;;1.70;99.90;;;;;;5056357;28;20449;-50
2022/11/20 01:23:50;;;;;;;7.53;5.87;;;1.70;99.90;;;;;;5056239;28;20785;-49
2022/11/20 01:26:19;;;;;;;8.80;3.73;;;1.70;99.90;;;;;;5056332;28;20444;-48
2022/11/20 01:28:49;;;;;;;9.30;5.80;;;1.70;99.90;;;;;;5056708;28;20479;-48
2022/11/20 01:31:18;;;;;;;9.27;4.80;;;1.60;99.90;;;;;;5056589;28;20464;-48
2022/11/20 01:33:46;;;;;;;5.87;4.30;;;1.70;99.90;;;;;;5055841;28;20474;-48
2022/11/20 01:36:14;;;;;;;11.30;4.60;;;1.70;99.90;;;;;;5055013;28;20468;-50
2022/11/20 01:38:41;;;;;;;6.07;4.37;;;1.70;99.90;;;;;;5055576;28;20444;-53
2022/11/20 01:41:09;;;;;;;12.33;6.20;;;1.70;99.90;;;;;;5055604;28;20439;-52
2022/11/20 01:43:35;;;;;;;8.37;6.23;;;1.70;99.90;;;;;;5055807;28;20464;-51
2022/11/20 01:46:13;;;;;;;8.93;5.30;;;1.70;99.90;;;;;;5056112;28;20447;-48
2022/11/20 01:48:48;;;;;;;8.33;4.63;;;1.70;99.90;;;;;;5055674;28;20476;-54
2022/11/20 01:51:21;;;;;;;9.83;4.97;;;1.70;99.90;;;;;;5055583;28;20452;-58
2022/11/20 01:53:49;;;;;;;9.00;5.10;;;1.70;99.90;;;;;;5055681;28;20588;-55
2022/11/20 01:56:16;;;;;;;7.53;5.10;;;1.70;99.90;;;;;;5056458;28;20447;-54
2022/11/20 01:58:49;;;;;;;8.57;4.87;;;1.70;99.90;;;;;;5051581;28;20452;-57
2022/11/20 02:01:18;;;;;;;9.97;6.87;;;1.60;99.90;;;;;;5044456;28;20475;-54
2022/11/20 02:03:45;;;;;;;11.20;5.13;;;1.60;99.90;;;;;;5055272;28;20490;-53
2022/11/20 02:06:17;;;;;;;7.03;4.60;;;1.60;99.90;;;;;;5045490;28;20448;-53
2022/11/20 02:08:44;;;;;;;8.30;5.37;;;1.60;99.90;;;;;;5053326;28;20452;-56
2022/11/20 02:11:13;;;;;;;19.43;5.00;;;1.60;99.90;;;;;;5043851;28;20479;-51
2022/11/20 02:13:43;;;;;;;6.23;5.13;;;1.60;99.90;;;;;;5055995;28;20456;-54
2022/11/20 02:16:13;;;;;;;15.10;9.70;;;1.60;99.90;;;;;;5050413;28;20467;-58
2022/11/20 02:18:45;;;;;;;8.07;5.87;;;1.60;99.90;;;;;;5049907;28;20448;-50
2022/11/20 02:21:26;;;;;;;7.77;4.70;;;1.50;99.90;;;;;;5055430;28;20440;-52
2022/11/20 02:24:12;;;;;;;12.47;5.70;;;1.60;99.90;;;;;;5039196;28;20505;-56
2022/11/20 02:26:50;;;;;;;9.93;4.80;;;1.60;99.90;;;;;;5054896;28;20432;-50
2022/11/20 02:29:23;;;;;;;9.23;5.90;;;1.60;99.90;;;;;;5054486;28;20420;-52
2022/11/20 02:31:51;;;;;;;11.00;5.70;;;1.50;99.90;;;;;;5054785;28;20455;-50
2022/11/20 02:34:18;;;;;;;7.90;4.43;;;1.50;99.90;;;;;;5055009;28;20510;-53
2022/11/20 02:36:46;;;;;;;9.17;4.40;;;1.50;99.90;;;;;;5054652;28;20476;-55
2022/11/20 02:39:17;;;;;;;11.30;6.20;;;1.40;99.90;;;;;;5054565;28;20451;-53
2022/11/20 02:41:47;;;;;;;7.83;4.20;;;1.50;99.90;;;;;;5054611;28;20467;-56
2022/11/20 02:44:14;;;;;;;7.87;4.10;;;1.50;99.90;;;;;;5046987;28;20476;-56
2022/11/20 02:46:41;;;;;;;8.80;4.67;;;1.50;99.90;;;;;;5050375;28;20499;-56
2022/11/20 02:49:08;;;;;;;11.30;5.40;;;1.50;99.90;;;;;;5043510;28;20456;-54
2022/11/20 02:51:34;;;;;;;8.90;5.37;;;1.50;99.90;;;;;;5055526;28;20455;-58
2022/11/20 02:54:04;;;;;;;10.23;5.30;;;1.50;99.90;;;;;;5055741;28;20454;-49
2022/11/20 02:56:33;;;;;;;9.47;4.20;;;1.50;99.90;;;;;;5055352;28;20464;-52
2022/11/20 02:59:00;;;;;;;10.80;5.87;;;1.60;99.90;;;;;;5055170;28;20496;-51
2022/11/20 03:01:27;;;;;;;6.70;4.90;;;1.60;99.90;;;;;;5055449;28;20483;-56
2022/11/20 03:03:57;;;;;;;11.13;6.70;;;1.60;99.90;;;;;;5054920;28;20452;-51
2022/11/20 03:06:24;;;;;;;7.03;5.37;;;1.60;99.90;;;;;;5054605;28;20428;-53
2022/11/20 03:08:54;;;;;;;8.00;6.23;;;1.50;99.90;;;;;;5054684;28;20444;-58
2022/11/20 03:11:21;;;;;;;10.90;5.53;;;1.60;99.90;;;;;;5054233;28;20433;-51
2022/11/20 03:13:49;;;;;;;8.80;4.63;;;1.60;99.90;;;;;;5053707;28;20480;-52
2022/11/20 03:16:19;;;;;;;11.03;6.03;;;1.50;99.90;;;;;;5053677;28;20480;-53
2022/11/20 03:18:46;;;;;;;5.60;4.90;;;1.40;99.90;;;;;;5054556;28;20444;-58
2022/11/20 03:21:14;;;;;;;7.93;4.23;;;1.50;99.90;;;;;;5053623;28;20464;-55
2022/11/20 03:23:41;;;;;;;7.27;4.80;;;1.50;99.90;;;;;;5053837;28;20440;-57
2022/11/20 03:26:13;;;;;;;9.07;5.87;;;1.50;99.90;;;;;;5053741;28;20475;-53
2022/11/20 03:28:40;;;;;;;12.27;5.70;;;1.50;99.90;;;;;;5053777;28;20463;-53
2022/11/20 03:31:14;;;;;;;9.30;6.30;;;1.50;99.90;;;;;;5053266;28;20460;-55
2022/11/20 03:33:41;;;;;;;6.87;4.47;;;1.40;99.90;;;;;;5053758;28;20436;-53
2022/11/20 03:36:10;;;;;;;7.37;5.90;;;1.30;99.90;;;;;;5051080;28;20491;-57
2022/11/20 03:38:37;;;;;;;5.73;4.10;;;1.40;99.90;;;;;;5046567;28;20472;-55
2022/11/20 03:41:06;;;;;;;8.70;5.23;;;1.30;99.90;;;;;;5054343;28;20448;-52
2022/11/20 03:43:33;;;;;;;5.67;4.20;;;1.30;99.90;;;;;;5054389;28;20456;-55
2022/11/20 03:46:04;;;;;;;7.83;5.30;;;1.40;99.90;;;;;;5053761;28;20444;-55
2022/11/20 03:48:32;;;;;;;12.70;5.30;;;1.40;99.90;;;;;;5054787;28;20428;-52
2022/11/20 03:51:13;;;;;;;6.90;5.63;;;1.40;99.90;;;;;;5054850;28;20468;-57
2022/11/20 03:53:40;;;;;;;10.27;5.83;;;1.40;99.90;;;;;;5054532;28;20455;-57
2022/11/20 03:56:08;;;;;;;10.37;5.07;;;1.40;99.90;;;;;;5054277;28;20499;-54
2022/11/20 03:58:39;;;;;;;13.03;5.07;;;1.40;99.90;;;;;;5043018;28;20444;-56
2022/11/20 04:01:08;;;;;;;8.67;5.30;;;1.50;99.90;;;;;;5056984;28;20623;-53
2022/11/20 04:03:37;;;;;;;10.83;5.77;;;1.50;99.90;;;;;;5057117;28;20456;-55
2022/11/20 04:06:10;;;;;;;16.17;7.07;;;1.40;99.90;;;;;;5058139;28;20439;-52
2022/11/20 04:08:37;;;;;;;11.60;5.80;;;1.40;99.90;;;;;;5058054;28;20467;-54
2022/11/20 04:11:15;;;;;;;7.13;4.00;;;1.40;99.90;;;;;;5058417;28;20501;-54
2022/11/20 04:13:43;;;;;;;9.07;4.20;;;1.40;99.90;;;;;;5057778;28;20436;-55
2022/11/20 04:16:10;;;;;;;6.37;5.07;;;1.30;99.90;;;;;;5058036;28;20476;-50
2022/11/20 04:18:39;;;;;;;7.07;3.70;;;1.30;99.90;;;;;;5051224;28;20436;-57
2022/11/20 04:21:07;;;;;;;14.27;6.60;;;1.30;99.90;;;;;;5052375;28;20568;-52
2022/11/20 04:23:34;;;;;;;7.50;3.97;;;1.20;99.90;;;;;;5056878;28;20443;-58
2022/11/20 04:26:05;;;;;;;8.20;4.60;;;1.20;99.90;;;;;;5056668;28;20436;-56
2022/11/20 04:28:32;;;;;;;10.00;5.83;;;1.20;99.90;;;;;;5056577;28;20432;-54
2022/11/20 04:31:07;;;;;;;12.40;5.23;;;1.20;99.90;;;;;;5056574;28;20459;-56
2022/11/20 04:33:34;;;;;;;8.23;5.13;;;1.20;99.90;;;;;;5056337;28;20459;-57
2022/11/20 04:36:04;;;;;;;10.87;4.37;;;1.20;99.90;;;;;;5056874;28;20521;-52
2022/11/20 04:38:31;;;;;;;8.60;5.83;;;1.20;99.90;;;;;;5057070;28;20426;-54
2022/11/20 04:40:59;;;;;;;9.57;5.70;;;1.20;99.90;;;;;;5056638;28;20474;-55
2022/11/20 04:43:26;;;;;;;6.73;4.10;;;1.30;99.90;;;;;;5056527;28;20425;-50
2022/11/20 04:45:53;;;;;;;9.40;5.67;;;1.30;99.90;;;;;;5056248;28;20470;-57
2022/11/20 04:48:20;;;;;;;8.00;4.60;;;1.30;99.90;;;;;;5056529;28;20479;-55
2022/11/20 04:50:50;;;;;;;15.40;4.83;;;1.30;99.90;;;;;;5055941;28;20468;-54
2022/11/20 04:53:24;;;;;;;13.50;5.90;;;1.30;99.90;;;;;;5056767;28;20436;-56
2022/11/20 04:55:51;;;;;;;9.17;5.27;;;1.30;99.90;;;;;;5056905;28;20495;-54
2022/11/20 04:58:18;;;;;;;9.57;5.50;;;1.30;99.90;;;;;;5056971;28;20455;-54
2022/11/20 05:00:45;;;;;;;7.13;4.27;;;1.30;99.90;;;;;;5056771;28;20452;-54
2022/11/20 05:03:12;;;;;;;11.20;5.20;;;1.40;99.90;;;;;;5056521;28;20499;-53
2022/11/20 05:05:41;;;;;;;10.73;6.10;;;1.40;99.90;;;;;;5056733;28;20475;-56
2022/11/20 05:08:11;;;;;;;12.57;6.00;;;1.30;99.90;;;;;;5057143;28;20436;-53
2022/11/20 05:10:39;;;;;;;15.00;7.00;;;1.30;99.90;;;;;;5056366;28;20464;-55
2022/11/20 05:13:06;;;;;;;8.20;4.63;;;1.30;99.90;;;;;;5056231;28;20453;-55
2022/11/20 05:15:35;;;;;;;15.03;5.40;;;1.30;99.90;;;;;;5055806;28;20735;-56
2022/11/20 05:18:05;;;;;;;6.20;4.00;;;1.30;99.90;;;;;;5056422;28;20448;-53
2022/11/20 05:20:35;;;;;;;8.40;5.23;;;1.30;99.90;;;;;;5056099;28;20504;-53
2022/11/20 05:23:03;;;;;;;11.03;6.03;;;1.40;99.90;;;;;;5055858;28;20459;-55
2022/11/20 05:25:30;;;;;;;14.00;6.13;;;1.30;99.90;;;;;;5044796;28;20447;-54
2022/11/20 05:27:58;;;;;;;7.20;4.57;;;1.30;99.90;;;;;;5055303;28;20452;-50
2022/11/20 05:30:25;;;;;;;9.13;5.30;;;1.30;99.90;;;;;;5055959;28;20432;-56
2022/11/20 05:32:52;;;;;;;11.47;6.13;;;1.30;99.90;;;;;;5056119;28;20460;-55
2022/11/20 05:35:19;;;;;;;7.30;4.40;;;1.30;99.90;;;;;;5055884;28;20486;-56
2022/11/20 05:37:46;;;;;;;6.30;4.60;;;1.30;99.90;;;;;;5056067;28;20474;-55
2022/11/20 05:40:13;;;;;;;9.87;6.60;;;1.40;99.90;;;;;;5056690;28;20472;-53
2022/11/20 05:42:43;;;;;;;7.57;4.93;;;1.40;99.90;;;;;;5049970;28;20478;-58
2022/11/20 05:45:14;;;;;;;6.50;4.50;;;1.40;99.90;;;;;;5054442;28;20448;-59
2022/11/20 05:47:41;;;;;;;7.10;4.97;;;1.50;99.90;;;;;;5056413;28;20424;-59
2022/11/20 05:50:08;;;;;;;9.60;6.00;;;1.50;99.90;;;;;;5055838;28;20463;-51
2022/11/20 05:52:35;;;;;;;7.83;5.10;;;1.50;99.90;;;;;;5055842;28;20495;-56
2022/11/20 05:55:02;;;;;;;13.03;6.83;;;1.50;99.90;;;;;;5056342;28;20443;-57
2022/11/20 05:57:30;;;;;;;9.70;5.27;;;1.50;99.90;;;;;;5055836;28;20436;-52
2022/11/20 05:59:56;;;;;;;11.10;6.07;;;1.50;99.90;;;;;;5055705;28;20416;-54
2022/11/20 06:02:25;;;;;;;11.53;6.50;;;1.50;99.90;;;;;;5056171;28;20428;-54
2022/11/20 06:04:51;;;;;;;8.40;5.50;;;1.60;99.90;;;;;;5055960;28;20468;-56
2022/11/20 06:07:21;;;;;;;13.23;7.33;;;1.60;99.90;;;;;;5051637;28;20446;-55
2022/11/20 06:09:47;;;;;;;8.10;5.63;;;1.60;99.90;;;;;;5055983;28;20444;-55
2022/11/20 06:12:14;;;;;;;11.47;5.93;;;1.70;99.90;;;;;;5056266;28;20485;-51
2022/11/20 06:14:41;;;;;;;8.47;5.27;;;1.70;99.90;;;;;;5056237;28;20448;-50
2022/11/20 06:17:10;;;;;;;8.40;5.60;;;1.60;99.90;;;;;;5056035;28;20491;-56
2022/11/20 06:19:39;;;;;;;8.57;5.67;;;1.60;99.90;;;;;;5056178;28;20449;-52
2022/11/20 06:22:06;;;;;;;17.93;6.90;;;1.60;99.90;;;;;;5055333;28;20644;-52
2022/11/20 06:24:33;;;;;;;9.93;5.20;;;1.60;99.90;;;;;;5056091;28;20424;-58
2022/11/20 06:26:59;;;;;;;8.97;4.37;;;1.50;99.90;;;;;;5055571;28;20432;-55
2022/11/20 06:29:26;;;;;;;12.50;5.20;;;1.50;99.90;;;;;;5038612;28;20466;-58
2022/11/20 06:31:53;;;;;;;12.37;6.03;;;1.50;99.90;;;;;;5056286;28;20459;-57
2022/11/20 06:34:23;;;;;;;6.90;5.10;;;1.40;99.90;;;;;;5055862;28;20491;-53
2022/11/20 06:36:51;;;;;;;15.03;5.73;;;1.40;99.90;;;;;;5054921;28;20571;-56
2022/11/20 06:39:18;;;;;;;9.07;5.60;;;1.40;99.90;;;;;;5054860;28;20471;-55
2022/11/20 06:41:45;;;;;;;11.00;5.43;;;1.40;99.90;;;;;;5055129;28;20460;-56
2022/11/20 06:44:15;;;;;;;8.50;5.10;;;1.40;99.90;;;;;;5055145;28;20551;-58
2022/11/20 06:46:46;;;;;;;6.90;5.30;;;1.40;99.90;;;;;;5055068;28;20487;-53
2022/11/20 06:49:12;;;;;;;7.37;4.00;;;1.40;99.90;;;;;;5055281;28;20413;-53
2022/11/20 06:51:39;;;;;;;11.57;7.77;;;1.40;99.90;;;;;;5054794;28;20444;-55
2022/11/20 06:54:08;;;;;;;12.63;5.77;;;1.40;99.90;;;;;;5054206;28;20507;-55
2022/11/20 06:56:38;;;;;;;11.97;6.43;;;1.40;99.90;;;;;;5053971;28;20498;-57
2022/11/20 06:59:06;;;;;;;17.53;5.87;;;1.40;99.90;;;;;;5044703;28;20476;-58
2022/11/20 07:01:32;;;;;;;13.57;5.50;;;1.40;99.90;;;;;;5054427;28;20455;-55
2022/11/20 07:03:59;;;;;;;11.13;6.27;;;1.50;99.90;;;;;;5054479;28;20962;-57
2022/11/20 07:06:26;;;;;;;8.47;4.87;;;1.50;99.90;;;;;;5054311;28;20443;-52
2022/11/20 07:08:53;;;;;;;11.00;5.93;;;1.50;99.90;;;;;;5054646;28;20460;-54
2022/11/20 07:11:21;;;;;;;12.77;6.40;;;1.50;99.90;;;;;;5054080;28;20472;-58
2022/11/20 07:13:48;;;;;;;12.20;5.87;;;1.50;99.90;;;;;;5044933;28;20440;-58
2022/11/20 07:16:15;;;;;;;14.80;6.10;;;1.50;99.90;;;;;;5051635;28;20464;-55
2022/11/20 07:18:45;;;;;;;7.13;5.00;;;1.50;99.90;;;;;;5054060;28;20455;-59
2022/11/20 07:21:12;;;;;;;11.40;5.90;;;1.50;99.90;;;;;;5053398;28;20443;-56
2022/11/20 07:23:39;;;;;;;11.40;6.83;;;1.50;99.90;;;;;;5054073;28;20498;-56
2022/11/20 07:26:07;;;;;;;12.73;5.83;;;1.50;99.90;;;;;;5054447;28;20440;-57
2022/11/20 07:28:36;;;;;;;7.40;4.50;;;1.50;99.90;;;;;;5053645;28;20440;-58
2022/11/20 07:31:04;;;;;;;12.87;7.60;;;1.40;99.90;;;;;;5053482;28;20431;-53
2022/11/20 07:33:31;;;;;;;10.20;6.43;;;1.40;99.90;;;;;;5054232;28;20531;-52
2022/11/20 07:36:02;;;;;;;11.57;6.07;;;1.40;99.90;;;;;;5057614;28;20917;-50
2022/11/20 07:38:29;;;;;;;9.53;5.80;;;1.30;99.90;;;;;;5057732;28;20409;-54
2022/11/20 07:40:57;;;;;;;10.87;7.07;;;1.30;99.90;;;;;;5058984;28;20440;-53
2022/11/20 07:43:27;;;;;;;6.87;5.67;;;1.30;99.90;;;;;;5058308;28;20444;-53
2022/11/20 07:45:56;;;;;;;12.77;5.53;;;1.30;99.90;;;;;;5058457;28;20444;-56
2022/11/20 07:48:26;;;;;;;16.10;6.30;;;1.30;99.90;;;;;;5057689;28;20483;-57
2022/11/20 07:50:54;;;;;;;8.07;6.30;;;1.30;99.90;;;;;;5057777;28;20440;-56
2022/11/20 07:53:22;;;;;;;9.97;5.13;;;1.20;99.90;;;;;;5057141;28;20947;-54
2022/11/20 07:55:49;;;;;;;7.07;5.83;;;1.20;99.90;;;;;;5057022;28;20515;-51
2022/11/20 07:58:19;;;;;;;10.57;5.50;;;1.20;99.90;;;;;;5057295;28;20456;-54
2022/11/20 08:00:46;;;;;;;11.77;4.50;;;1.30;99.90;;;;;;5057778;28;20959;-57
2022/11/20 08:03:14;;;;;;;14.50;5.87;;;1.20;99.90;;;;;;5057276;28;20471;-53
2022/11/20 08:05:41;;;;;;;7.30;5.27;;;1.20;99.90;;;;;;5056919;28;20492;-55
2022/11/20 08:08:11;;;;;;;6.63;4.73;;;1.30;99.90;;;;;;5057243;28;20447;-52
2022/11/20 08:10:43;;;;;;;11.17;4.77;;;1.30;99.90;;;;;;5056703;28;20436;-57
2022/11/20 08:15:57;;;;;;;6.47;4.73;;;1.30;99.90;;;;;;5013800;28;20507;-54
2022/11/20 08:18:25;;;;;;;7.93;5.60;;;1.30;99.90;;;;;;5057139;28;20474;-56
2022/11/20 08:20:52;;;;;;;10.57;6.07;;;1.30;99.90;;;;;;5057322;28;20443;-53
2022/11/20 08:23:24;;;;;;;9.43;5.67;;;1.30;99.90;;;;;;5058714;28;20444;-51
2022/11/20 08:25:51;;;;;;;10.17;6.30;;;1.40;99.90;;;;;;5057867;28;20477;-55
2022/11/20 08:28:20;;;;;;;13.57;7.70;;;1.40;99.90;;;;;;5046924;28;20452;-55
2022/11/20 08:30:47;;;;;;;12.80;6.47;;;1.50;99.90;;;;;;5057769;28;20495;-60
2022/11/20 08:33:13;;;;;;;12.03;6.40;;;1.50;99.90;;;;;;5058124;28;20448;-60
2022/11/20 08:35:42;;;;;;;10.57;5.90;;;1.60;99.90;;;;;;5057653;28;20424;-54
2022/11/20 08:38:10;;;;;;;10.23;6.30;;;1.60;99.90;;;;;;5057692;28;20447;-54
2022/11/20 08:40:37;;;;;;;8.63;6.20;;;1.70;99.90;;;;;;5057189;28;20440;-60
2022/11/20 08:43:04;;;;;;;10.53;5.20;;;1.60;99.90;;;;;;5056995;28;20452;-52
2022/11/20 08:45:33;;;;;;;13.17;6.30;;;1.60;99.90;;;;;;5056949;28;20440;-51
2022/11/20 08:48:01;;;;;;;7.67;5.53;;;1.60;99.90;;;;;;5056879;28;20432;-52
2022/11/20 08:50:31;;;;;;;8.70;5.57;;;1.60;99.90;;;;;;5057467;28;20484;-53
2022/11/20 08:53:04;;;;;;;13.40;7.00;;;1.60;99.90;;;;;;5057549;28;20444;-50
2022/11/20 08:55:31;;;;;;;11.50;5.90;;;1.60;99.90;;;;;;5057412;28;20482;-58
2022/11/20 08:57:58;;;;;;;10.50;5.73;;;1.60;99.90;;;;;;5056957;28;20520;-59
2022/11/20 09:00:25;;;;;;;10.53;6.43;;;1.60;99.90;;;;;;5056850;28;20452;-54
2022/11/20 09:02:57;;;;;;;10.57;6.23;;;1.60;99.90;;;;;;5057568;28;20435;-52
2022/11/20 09:05:24;;;;;;;8.70;6.00;;;1.60;99.90;;;;;;5056309;28;20475;-53
2022/11/20 09:07:51;;;;;;;7.70;5.20;;;1.70;99.90;;;;;;5056239;28;20456;-56
2022/11/20 09:10:19;;;;;;;7.70;5.23;;;1.70;99.90;;;;;;5056488;28;20428;-56
2022/11/20 09:12:50;;;;;;;10.23;6.23;;;1.70;99.90;;;;;;5056213;28;20465;-52
2022/11/20 09:15:17;;;;;;;12.57;6.63;;;1.80;99.90;;;;;;5056173;28;20693;-53
2022/11/20 09:17:52;;;;;;;10.47;5.43;;;1.90;99.90;;;;;;5056200;28;20487;-50
2022/11/20 09:20:24;;;;;;;12.53;6.97;;;1.90;99.90;;;;;;5056498;28;20490;-49
2022/11/20 09:22:51;;;;;;;10.83;5.90;;;1.90;99.90;;;;;;5056258;28;20436;-57
2022/11/20 09:25:19;;;;;;;9.83;6.20;;;1.90;99.90;;;;;;5051215;28;20476;-51
2022/11/20 09:27:46;;;;;;;12.10;7.73;;;1.90;99.90;;;;;;5056026;28;20437;-51
2022/11/20 09:30:14;;;;;;;11.60;5.67;;;1.90;99.90;;;;;;5055776;28;21176;-50
2022/11/20 09:32:42;;;;;;;12.10;5.43;;;1.90;99.90;;;;;;5055721;28;20440;-56
2022/11/20 09:35:10;;;;;;;10.30;5.50;;;1.90;99.90;;;;;;5055615;28;20447;-54
2022/11/20 09:37:37;;;;;;;10.33;6.30;;;1.90;99.90;;;;;;5055828;28;20548;-56
2022/11/20 09:40:04;;;;;;;12.53;6.20;;;1.90;99.90;;;;;;5055293;28;20440;-58
2022/11/20 09:42:42;;;;;;;10.23;5.37;;;1.90;99.90;;;;;;5055641;28;20789;-57
2022/11/20 09:45:22;;;;;;;12.10;6.60;;;1.90;99.90;;;;;;5055566;28;20425;-56
2022/11/20 09:48:13;;;;;;;10.10;7.13;;;1.80;99.90;;;;;;5055511;28;20421;-57
2022/11/20 09:50:48;;;;;;;10.37;5.07;;;1.70;99.90;;;;;;5044874;28;20448;-55
2022/11/20 09:53:24;;;;;;;13.20;6.93;;;1.70;99.90;;;;;;5055321;28;20463;-58
2022/11/20 09:55:52;;;;;;;18.97;9.70;;;1.70;99.90;;;;;;5055469;28;20464;-54
2022/11/20 09:58:31;;;;;;;5.50;4.73;;;1.70;99.90;;;;;;5055528;28;20480;-54
2022/11/20 10:01:13;;;;;;;11.43;6.13;;;1.60;99.90;;;;;;5055194;28;20439;-56
2022/11/20 10:03:50;;;;;;;9.53;5.50;;;1.70;99.90;;;;;;5054708;28;20916;-55
2022/11/20 10:06:22;;;;;;;9.13;5.20;;;1.60;99.90;;;;;;5055001;28;20440;-56
2022/11/20 10:08:55;;;;;;;11.67;6.50;;;1.60;99.90;;;;;;5047033;28;20965;-52
2022/11/20 10:11:31;;;;;;;7.47;5.00;;;1.70;99.90;;;;;;5055481;28;20428;-55
2022/11/20 10:14:10;;;;;;;9.43;5.70;;;1.70;99.90;;;;;;5055157;28;20476;-54
2022/11/20 10:16:45;;;;;;;12.30;6.87;;;1.80;99.90;;;;;;5055541;28;20464;-56
2022/11/20 10:19:31;;;;;;;10.83;6.70;;;1.80;99.90;;;;;;5045032;28;20459;-53
2022/11/20 10:22:10;;;;;;;10.43;6.57;;;1.80;99.90;;;;;;5054987;28;20408;-49
2022/11/20 10:24:45;;;;;;;10.77;5.80;;;1.90;99.90;;;;;;5054610;28;20448;-52
2022/11/20 10:27:45;;;;;;;11.70;6.37;;;1.90;99.90;;;;;;5054171;28;20451;-53
2022/11/20 10:30:15;;;;;;;10.73;5.70;;;1.80;99.90;;;;;;5055267;28;20419;-52
2022/11/20 10:32:44;;;;;;;9.23;6.07;;;1.90;99.90;;;;;;5055305;28;20455;-55
2022/11/20 10:35:21;;;;;;;11.57;5.80;;;1.80;99.90;;;;;;5052799;28;20432;-57
2022/11/20 10:37:52;;;;;;;11.17;5.73;;;1.90;99.90;;;;;;5047448;28;20468;-55
2022/11/20 10:40:26;;;;;;;13.87;7.90;;;1.90;99.90;;;;;;5043781;28;20440;-56
2022/11/20 10:42:56;;;;;;;12.23;5.50;;;1.90;99.90;;;;;;5043143;28;20432;-53
2022/11/20 10:45:41;;;;;;;11.47;7.17;;;1.90;99.90;;;;;;5055006;28;20452;-54
2022/11/20 10:48:17;;;;;;;7.47;5.20;;;1.90;99.90;;;;;;5054999;28;20429;-55
2022/11/20 10:51:18;;;;;;;10.43;6.50;;;1.90;99.90;;;;;;5043487;28;20496;-54
2022/11/20 10:54:05;;;;;;;9.03;5.30;;;1.90;99.90;;;;;;5051094;28;20439;-56
2022/11/20 10:56:39;;;;;;;10.40;7.50;;;1.90;99.90;;;;;;5046203;28;20447;-54
2022/11/20 10:59:56;;;;;;;10.93;6.07;;;2.00;99.90;;;;;;5055298;28;20444;-50
2022/11/20 11:02:33;;;;;;;8.43;4.73;;;2.20;99.90;;;;;;5055592;28;20468;-48
2022/11/20 11:05:12;;;;;;;13.83;6.53;;;2.20;99.90;;;;;;5056069;28;20487;-54
2022/11/20 11:07:40;;;;;;;12.60;6.77;;;2.30;99.90;;;;;;5056350;28;20467;-50
2022/11/20 11:10:17;;;;;;;9.20;6.43;;;2.30;99.90;;;;;;5053836;28;20444;-55
2022/11/20 11:12:46;;;;;;;13.43;6.40;;;2.40;99.90;;;;;;5053477;28;20443;-51
2022/11/20 11:15:25;;;;;;;15.60;7.07;;;2.40;99.90;;;;;;5058943;28;20468;-51
2022/11/20 11:17:54;;;;;;;7.87;5.00;;;2.40;99.90;;;;;;5059063;28;20523;-51
2022/11/20 11:20:22;;;;;;;9.40;5.60;;;2.40;99.90;;;;;;5058495;28;20470;-53
2022/11/20 11:22:54;;;;;;;12.10;6.20;;;2.50;99.90;;;;;;5058819;28;20440;-53
2022/11/20 11:25:28;;;;;;;10.93;6.27;;;2.60;99.90;;;;;;5059367;28;20432;-54
2022/11/20 11:27:57;;;;;;;9.73;6.00;;;2.70;99.90;;;;;;5059052;28;20459;-52
2022/11/20 11:30:25;;;;;;;10.13;5.57;;;2.80;99.90;;;;;;5053286;28;20472;-59
2022/11/20 11:33:11;;;;;;;9.13;5.67;;;2.90;99.90;;;;;;5058586;28;20487;-50
2022/11/20 11:35:45;;;;;;;14.00;6.87;;;2.90;99.90;;;;;;5056970;28;20444;-56
2022/11/20 11:38:16;;;;;;;15.90;6.00;;;2.80;99.90;;;;;;5058378;28;20467;-54
2022/11/20 11:40:44;;;;;;;8.53;5.80;;;2.80;99.90;;;;;;5058220;28;20496;-56
2022/11/20 11:46:15;;;;;;;8.93;5.70;;;2.80;99.90;;;;;;5058405;28;20447;-54
2022/11/20 11:48:55;;;;;;;8.77;5.63;;;2.80;99.90;;;;;;5057982;28;20452;-55
2022/11/20 11:51:43;;;;;;;14.67;7.20;;;2.80;99.90;;;;;;5058078;28;20448;-57
2022/11/20 11:54:19;;;;;;;9.53;5.83;;;2.90;99.90;;;;;;5056992;28;20463;-54
2022/11/20 11:56:47;;;;;;;6.53;5.00;;;2.90;99.90;;;;;;5057578;28;20420;-55
2022/11/20 11:59:23;;;;;;;12.77;7.10;;;3.00;99.90;;;;;;5057610;28;20446;-51
2022/11/20 12:01:56;;;;;;;11.43;5.67;;;3.00;99.90;;;;;;5058172;28;20527;-55
2022/11/20 12:04:42;;;;;;;9.23;5.90;;;2.90;99.90;;;;;;5057897;28;20519;-57
2022/11/20 12:07:15;;;;;;;9.43;5.23;;;2.80;99.90;;;;;;5058265;28;20440;-55
2022/11/20 12:09:53;;;;;;;13.40;6.33;;;2.80;99.90;;;;;;5058146;28;20459;-54
2022/11/20 12:12:23;;;;;;;9.20;6.13;;;2.70;99.90;;;;;;5058048;28;20455;-55
2022/11/20 12:14:53;;;;;;;11.30;6.00;;;2.70;99.90;;;;;;5057770;28;20451;-51
2022/11/20 12:17:20;;;;;;;8.73;4.97;;;2.60;99.90;;;;;;5057606;28;20483;-51
2022/11/20 12:19:49;;;;;;;7.40;4.80;;;2.70;99.90;;;;;;5056953;28;20435;-56
2022/11/20 12:22:25;;;;;;;14.90;6.70;;;2.70;99.90;;;;;;5057196;28;20467;-54
2022/11/20 12:25:01;;;;;;;7.13;5.20;;;2.80;99.90;;;;;;5056787;28;20448;-54
2022/11/20 12:27:53;;;;;;;10.90;7.10;;;2.80;99.90;;;;;;5057343;28;20506;-55
2022/11/20 12:30:21;;;;;;;10.43;6.30;;;2.80;99.90;;;;;;5057519;28;20400;-52
2022/11/20 12:33:19;;;;;;;9.83;5.90;;;2.80;99.90;;;;;;5057462;28;20455;-56
2022/11/20 12:35:59;;;;;;;10.67;5.50;;;2.90;99.90;;;;;;5057145;28;20436;-49
2022/11/20 12:38:59;;;;;;;9.33;4.93;;;2.90;99.90;;;;;;5046850;28;20834;-54
2022/11/20 12:47:57;;;;;;;8.73;5.90;;;3.10;99.90;;;;;;5053611;28;20428;-58
2022/11/20 12:50:30;;;;;;;11.47;6.53;;;3.10;99.90;;;;;;5056433;28;20444;-56
2022/11/20 12:53:04;;;;;;;14.77;8.70;;;3.20;99.90;;;;;;5056544;28;20502;-56
2022/11/20 12:55:40;;;;;;;10.77;6.47;;;3.20;99.90;;;;;;5056147;28;20420;-53
2022/11/20 12:58:14;;;;;;;6.40;4.87;;;3.20;99.90;;;;;;5056143;28;20498;-53
2022/11/20 13:00:54;;;;;;;7.67;3.93;;;3.10;99.90;;;;;;5056479;28;20431;-56
2022/11/20 13:03:54;;;;;;;8.07;4.47;;;3.10;99.90;;;;;;5056753;28;20456;-56
2022/11/20 13:06:22;;;;;;;6.10;3.53;;;3.10;99.90;;;;;;5056097;28;20459;-52
2022/11/20 13:08:55;;;;;;;5.33;3.87;;;3.00;99.90;;;;;;5056392;28;20437;-57
2022/11/20 13:11:28;;;;;;;9.60;5.30;;;2.90;99.90;;;;;;5044091;28;20473;-55
2022/11/20 13:14:20;;;;;;;4.37;3.40;;;2.80;99.90;;;;;;5056440;28;20428;-50
2022/11/20 13:16:53;;;;;;;5.37;3.40;;;2.70;99.90;;;;;;5056485;28;20510;-55
2022/11/20 13:19:21;;;;;;;5.60;3.20;;;2.70;99.90;;;;;;5057084;28;20420;-54
2022/11/20 13:21:50;;;;;;;6.47;5.07;;;2.70;99.90;;;;;;5056422;28;20451;-54